Time;durP1;ratioP1;P1;durP2;ratioP2;P2;SDS_P1;SDS_P2;PMS_P1;PMS_P2;Temp;Humidity;BMP_temperature;BMP_pressure;BME280_temperature;BME280_humidity;BME280_pressure;Samples;Min_cycle;Max_cycle;Signal;HPM_P1;HPM_P2
2022/11/24 00:00:25;;;;;;;60.60;31.30;;;;;;;0.86;100.00;98019.88;105918;1297;59000;-77
2022/11/24 00:03:12;;;;;;;62.60;32.30;;;;;;;0.88;100.00;98020.33;105932;1290;67430;-76
2022/11/24 00:05:39;;;;;;;59.00;31.30;;;;;;;0.90;100.00;98020.05;105960;1292;59298;-77
2022/11/24 00:08:05;;;;;;;68.30;31.10;;;;;;;0.92;100.00;98021.20;105953;1291;59320;-77
2022/11/24 00:10:32;;;;;;;68.20;33.90;;;;;;;0.94;100.00;98024.11;105934;1297;59211;-77
2022/11/24 00:12:58;;;;;;;66.80;32.00;;;;;;;0.94;100.00;98022.34;105963;1289;59226;-77
2022/11/24 00:15:24;;;;;;;69.20;32.60;;;;;;;0.94;100.00;98025.66;105953;1296;59099;-76
2022/11/24 00:17:50;;;;;;;64.90;31.30;;;;;;;0.94;100.00;98027.94;105661;1296;59141;-76
2022/11/24 00:20:16;;;;;;;66.40;33.30;;;;;;;0.95;100.00;98032.46;105954;1288;58961;-76
2022/11/24 00:22:42;;;;;;;68.30;34.50;;;;;;;0.94;100.00;98031.41;105912;1295;58992;-76
2022/11/24 00:25:08;;;;;;;70.30;34.20;;;;;;;0.96;100.00;98036.09;105928;1291;58939;-76
2022/11/24 00:27:34;;;;;;;61.20;30.60;;;;;;;0.96;100.00;98037.83;105934;1292;59044;-77
2022/11/24 00:30:00;;;;;;;65.40;31.10;;;;;;;0.95;100.00;98045.38;105906;1292;58926;-77
2022/11/24 00:32:28;;;;;;;57.90;29.60;;;;;;;0.95;100.00;98048.38;105709;1276;58992;-77
2022/11/24 00:34:55;;;;;;;57.20;29.20;;;;;;;0.94;100.00;98051.71;105933;1290;59257;-77
2022/11/24 00:37:21;;;;;;;59.90;29.90;;;;;;;0.95;100.00;98054.83;105971;1292;59044;-77
2022/11/24 00:39:47;;;;;;;56.60;29.30;;;;;;;0.95;100.00;98059.21;105935;1292;59021;-75
2022/11/24 00:42:13;;;;;;;53.90;28.50;;;;;;;0.97;100.00;98062.80;105925;1297;58883;-76
2022/11/24 00:44:39;;;;;;;56.40;30.50;;;;;;;0.96;100.00;98062.32;105925;1288;59159;-77
2022/11/24 00:47:05;;;;;;;50.80;28.20;;;;;;;0.95;100.00;98062.51;105611;1295;58897;-76
2022/11/24 00:49:31;;;;;;;52.90;27.70;;;;;;;0.94;100.00;98066.42;105646;1295;66988;-76
2022/11/24 00:51:57;;;;;;;60.20;29.10;;;;;;;0.93;100.00;98064.89;105928;1295;58994;-77
2022/11/24 00:54:23;;;;;;;50.40;25.90;;;;;;;0.94;100.00;98066.42;105687;1293;58974;-76
2022/11/24 00:56:50;;;;;;;47.20;26.90;;;;;;;0.91;100.00;98065.83;105919;1289;58771;-77
2022/11/24 00:59:16;;;;;;;49.30;27.00;;;;;;;0.91;100.00;98068.11;105935;1291;58784;-77
2022/11/24 01:01:42;;;;;;;48.70;26.80;;;;;;;0.92;100.00;98074.55;105922;1294;59057;-77
2022/11/24 01:04:09;;;;;;;48.60;28.00;;;;;;;0.92;100.00;98072.44;105909;1292;58946;-77
2022/11/24 01:06:35;;;;;;;50.20;28.20;;;;;;;0.94;100.00;98071.48;105938;1295;58960;-77
2022/11/24 01:09:02;;;;;;;47.60;27.20;;;;;;;0.96;100.00;98067.20;105912;1287;58836;-77
2022/11/24 01:14:18;;;;;;;;;;;;;;;0.97;100.00;98075.89;105947;1284;66071;-78
2022/11/24 01:16:44;;;;;;;56.80;29.70;;;;;;;0.96;100.00;98077.15;105681;1297;58962;-77
2022/11/24 01:19:11;;;;;;;51.80;28.30;;;;;;;0.96;100.00;98079.25;105679;1292;58951;-77
2022/11/24 01:21:36;;;;;;;50.80;28.80;;;;;;;0.96;100.00;98080.15;105939;1297;59202;-77
2022/11/24 01:24:03;;;;;;;48.30;27.10;;;;;;;0.96;100.00;98082.94;105944;1290;58850;-77
2022/11/24 01:26:30;;;;;;;45.20;25.50;;;;;;;0.95;100.00;98084.55;105915;1291;59159;-77
2022/11/24 01:28:57;;;;;;;48.30;26.80;;;;;;;0.94;100.00;98089.13;105918;1292;59172;-77
2022/11/24 01:31:24;;;;;;;52.80;28.20;;;;;;;0.94;100.00;98088.45;105764;1291;59038;-77
2022/11/24 01:33:51;;;;;;;45.50;25.10;;;;;;;0.94;100.00;98091.27;105887;1292;58945;-76
2022/11/24 01:36:18;;;;;;;43.20;24.00;;;;;;;0.94;100.00;98091.23;105917;1295;58824;-76
2022/11/24 01:38:44;;;;;;;44.80;24.90;;;;;;;0.95;100.00;98094.34;105927;1287;67197;-77
2022/11/24 01:41:16;;;;;;;41.40;24.20;;;;;;;0.97;100.00;98101.42;105917;1284;67082;-76
2022/11/24 01:43:44;;;;;;;43.20;24.50;;;;;;;0.99;100.00;98102.05;105681;1293;65051;-76
2022/11/24 01:46:12;;;;;;;43.10;25.10;;;;;;;0.99;100.00;98105.54;105952;1297;58920;-76
2022/11/24 01:48:44;;;;;;;46.00;24.50;;;;;;;0.99;100.00;98106.62;105918;1295;58944;-77
2022/11/24 01:51:16;;;;;;;40.80;24.80;;;;;;;0.99;100.00;98106.45;105909;1297;67127;-77
2022/11/24 01:53:45;;;;;;;44.70;25.40;;;;;;;0.99;100.00;98106.92;105930;1284;61122;-76
2022/11/24 01:56:12;;;;;;;48.30;25.80;;;;;;;1.02;100.00;98108.39;105908;1285;65202;-77
2022/11/24 01:58:41;;;;;;;45.10;25.00;;;;;;;1.06;100.00;98111.89;105925;1292;58896;-77
2022/11/24 02:01:07;;;;;;;43.00;24.40;;;;;;;1.07;100.00;98113.59;105925;1283;58829;-78
2022/11/24 02:03:37;;;;;;;45.00;25.30;;;;;;;1.05;100.00;98112.29;105928;1296;66903;-78
2022/11/24 02:06:17;;;;;;;43.20;25.60;;;;;;;1.04;100.00;98112.67;105927;1292;60299;-78
2022/11/24 02:08:53;;;;;;;44.50;27.30;;;;;;;1.05;100.00;98112.63;105912;1281;65127;-78
2022/11/24 02:11:22;;;;;;;46.70;26.40;;;;;;;1.05;100.00;98112.62;105922;1290;58874;-78
2022/11/24 02:13:52;;;;;;;48.20;27.40;;;;;;;1.05;100.00;98112.48;105950;1292;58828;-78
2022/11/24 02:16:17;;;;;;;43.70;25.20;;;;;;;1.04;100.00;98107.42;105940;1290;74616;-77
2022/11/24 02:18:46;;;;;;;45.00;26.50;;;;;;;1.03;100.00;98103.63;105928;1283;67506;-76
2022/11/24 02:21:14;;;;;;;46.30;27.20;;;;;;;1.03;100.00;98107.31;105896;1291;58862;-76
2022/11/24 02:23:52;;;;;;;51.60;28.80;;;;;;;1.03;100.00;98111.33;105899;1282;59005;-76
2022/11/24 02:26:34;;;;;;;48.40;28.10;;;;;;;1.03;100.00;98107.84;105942;1289;58886;-76
2022/11/24 02:29:01;;;;;;;44.80;27.40;;;;;;;1.02;100.00;98111.55;105940;1291;67252;-76
2022/11/24 02:31:27;;;;;;;47.00;28.40;;;;;;;1.01;100.00;98109.65;105869;1290;58926;-75
2022/11/24 02:33:54;;;;;;;49.90;28.80;;;;;;;1.01;100.00;98107.05;105898;1291;72704;-76
2022/11/24 02:36:20;;;;;;;46.90;27.20;;;;;;;1.01;100.00;98106.34;105743;1291;59209;-76
2022/11/24 02:38:46;;;;;;;56.50;30.20;;;;;;;1.01;100.00;98106.85;105952;1290;58972;-76
2022/11/24 02:41:18;;;;;;;50.30;29.80;;;;;;;1.01;100.00;98108.64;105918;1292;59243;-76
2022/11/24 02:43:53;;;;;;;48.40;28.40;;;;;;;1.00;100.00;98113.02;105797;1291;60098;-76
2022/11/24 02:46:20;;;;;;;48.90;30.60;;;;;;;1.01;100.00;98114.36;105915;1288;65137;-76
2022/11/24 02:48:48;;;;;;;46.90;28.60;;;;;;;1.02;100.00;98113.63;105901;1290;58933;-76
2022/11/24 02:51:14;;;;;;;46.40;27.10;;;;;;;1.02;100.00;98112.58;105762;1292;59900;-76
2022/11/24 02:53:40;;;;;;;46.20;26.90;;;;;;;1.01;100.00;98111.55;105948;1289;59158;-77
2022/11/24 02:56:07;;;;;;;43.10;26.20;;;;;;;1.02;100.00;98112.92;105909;1291;59001;-76
2022/11/24 02:58:33;;;;;;;47.20;28.40;;;;;;;1.03;100.00;98111.84;105901;1297;59026;-77
2022/11/24 03:00:59;;;;;;;51.80;29.20;;;;;;;1.05;100.00;98110.55;105923;1289;58968;-77
2022/11/24 03:03:26;;;;;;;48.40;28.90;;;;;;;1.05;100.00;98112.45;105929;1290;58839;-77
2022/11/24 03:05:52;;;;;;;50.40;28.80;;;;;;;1.06;100.00;98116.11;105928;1287;59117;-77
2022/11/24 03:08:18;;;;;;;46.10;27.10;;;;;;;1.03;100.00;98114.98;105933;1291;58980;-77
2022/11/24 03:10:45;;;;;;;49.20;27.30;;;;;;;1.03;100.00;98112.92;105926;1290;58879;-76
2022/11/24 03:13:11;;;;;;;46.60;28.30;;;;;;;1.03;100.00;98109.95;105918;1291;58906;-77
2022/11/24 03:15:37;;;;;;;50.00;29.40;;;;;;;1.03;100.00;98112.73;105918;1291;58863;-77
2022/11/24 03:18:04;;;;;;;57.90;29.70;;;;;;;1.04;100.00;98113.37;105913;1291;59042;-77
2022/11/24 03:20:30;;;;;;;48.60;29.40;;;;;;;1.06;100.00;98110.85;105660;1287;58886;-76
2022/11/24 03:22:56;;;;;;;51.40;29.90;;;;;;;1.06;100.00;98111.02;105896;1292;59122;-77
2022/11/24 03:25:22;;;;;;;55.10;34.90;;;;;;;1.06;100.00;98111.19;105926;1286;58891;-77
2022/11/24 03:27:48;;;;;;;52.00;36.80;;;;;;;1.07;100.00;98116.60;105926;1295;58923;-77
2022/11/24 03:30:14;;;;;;;59.00;36.20;;;;;;;1.10;100.00;98120.83;105981;1284;58928;-77
2022/11/24 03:32:41;;;;;;;51.70;33.00;;;;;;;1.11;100.00;98120.77;105900;1291;73508;-77
2022/11/24 03:35:07;;;;;;;48.10;30.30;;;;;;;1.13;100.00;98124.56;105907;1290;59969;-77
2022/11/24 03:37:33;;;;;;;49.60;30.40;;;;;;;1.14;100.00;98124.88;105901;1289;58809;-76
2022/11/24 03:39:59;;;;;;;53.20;31.80;;;;;;;1.15;100.00;98129.89;105700;1296;59118;-77
2022/11/24 03:42:25;;;;;;;52.40;33.80;;;;;;;1.14;100.00;98128.86;105941;1290;58967;-76
2022/11/24 03:44:52;;;;;;;57.20;35.00;;;;;;;1.15;100.00;98134.97;105892;1291;58954;-76
2022/11/24 03:47:19;;;;;;;62.50;34.30;;;;;;;1.16;100.00;98139.82;105882;1291;58850;-77
2022/11/24 03:49:45;;;;;;;63.10;35.30;;;;;;;1.16;100.00;98139.98;105918;1290;58815;-76
2022/11/24 03:52:11;;;;;;;68.60;35.60;;;;;;;1.17;100.00;98138.39;105915;1290;58931;-76
2022/11/24 03:54:41;;;;;;;64.60;34.00;;;;;;;1.18;100.00;98142.71;105943;1283;58975;-76
2022/11/24 03:57:07;;;;;;;58.40;32.30;;;;;;;1.18;100.00;98146.39;105914;1289;64187;-76
2022/11/24 03:59:33;;;;;;;63.80;34.80;;;;;;;1.18;100.00;98146.73;105937;1283;58949;-77
2022/11/24 04:01:59;;;;;;;54.10;32.30;;;;;;;1.19;100.00;98145.81;105966;1284;59133;-77
2022/11/24 04:04:26;;;;;;;56.30;32.00;;;;;;;1.20;100.00;98145.57;105930;1289;59046;-77
2022/11/24 04:06:52;;;;;;;49.30;30.10;;;;;;;1.23;100.00;98147.56;105924;1291;58851;-76
2022/11/24 04:09:18;;;;;;;53.80;31.20;;;;;;;1.24;100.00;98147.53;105942;1291;58920;-77
2022/11/24 04:14:28;;;;;;;51.80;30.30;;;;;;;1.23;100.00;98144.40;105923;1295;59321;-76
2022/11/24 04:16:54;;;;;;;51.40;28.40;;;;;;;1.24;100.00;98142.98;105920;1282;59107;-77
2022/11/24 04:19:20;;;;;;;54.50;29.80;;;;;;;1.25;100.00;98142.75;105930;1287;59250;-76
2022/11/24 04:21:48;;;;;;;49.80;28.10;;;;;;;1.25;100.00;98145.52;105933;1291;59027;-76
2022/11/24 04:24:14;;;;;;;51.00;28.50;;;;;;;1.25;100.00;98145.90;105649;1287;59052;-77
2022/11/24 04:26:40;;;;;;;56.80;31.80;;;;;;;1.26;100.00;98147.08;105943;1284;58962;-77
2022/11/24 04:29:06;;;;;;;54.40;29.80;;;;;;;1.26;100.00;98145.67;105912;1290;58874;-76
2022/11/24 04:31:32;;;;;;;52.60;30.00;;;;;;;1.28;100.00;98150.33;105924;1297;58949;-77
2022/11/24 04:33:59;;;;;;;52.10;28.10;;;;;;;1.27;100.00;98153.88;105908;1291;58962;-77
2022/11/24 04:36:25;;;;;;;56.50;31.70;;;;;;;1.25;100.00;98155.34;105915;1290;58944;-77
2022/11/24 04:38:52;;;;;;;54.70;30.40;;;;;;;1.24;100.00;98159.94;105931;1284;58907;-77
2022/11/24 04:41:19;;;;;;;54.30;30.20;;;;;;;1.23;100.00;98157.53;105936;1290;59298;-76
2022/11/24 04:43:49;;;;;;;59.60;30.10;;;;;;;1.23;100.00;98159.98;105925;1290;58929;-76
2022/11/24 04:46:15;;;;;;;62.90;31.40;;;;;;;1.22;100.00;98166.84;105915;1284;64930;-77
2022/11/24 04:48:41;;;;;;;62.10;32.20;;;;;;;1.24;100.00;98168.02;105905;1291;58878;-76
2022/11/24 04:51:07;;;;;;;59.50;30.40;;;;;;;1.24;100.00;98168.50;105939;1290;58778;-76
2022/11/24 04:53:33;;;;;;;56.50;30.50;;;;;;;1.25;100.00;98167.59;105915;1290;58936;-77
2022/11/24 04:56:04;;;;;;;55.80;30.00;;;;;;;1.25;100.00;98168.80;105932;1291;58883;-76
2022/11/24 04:58:30;;;;;;;62.10;33.00;;;;;;;1.24;100.00;98169.38;105769;1292;64957;-77
2022/11/24 05:00:56;;;;;;;59.00;32.50;;;;;;;1.23;100.00;98172.75;105906;1289;58904;-76
2022/11/24 05:03:23;;;;;;;64.20;34.70;;;;;;;1.24;100.00;98175.50;105922;1290;58959;-76
2022/11/24 05:05:50;;;;;;;63.60;35.00;;;;;;;1.25;100.00;98178.24;105843;1290;59151;-77
2022/11/24 05:08:15;;;;;;;60.50;32.10;;;;;;;1.26;100.00;98180.86;105929;1290;59008;-76
2022/11/24 05:10:42;;;;;;;71.70;35.50;;;;;;;1.24;100.00;98187.39;105906;1281;59088;-76
2022/11/24 05:13:10;;;;;;;63.00;34.50;;;;;;;1.22;100.00;98189.94;105584;1282;59024;-76
2022/11/24 05:15:38;;;;;;;72.40;35.40;;;;;;;1.21;100.00;98191.92;105927;1291;59160;-77
2022/11/24 05:18:10;;;;;;;71.30;36.10;;;;;;;1.20;100.00;98191.58;105911;1283;67315;-76
2022/11/24 05:20:37;;;;;;;78.50;37.70;;;;;;;1.20;100.00;98193.51;105947;1284;67246;-77
2022/11/24 05:23:05;;;;;;;76.60;37.50;;;;;;;1.20;100.00;98194.04;105887;1291;73910;-77
2022/11/24 05:25:32;;;;;;;74.70;37.60;;;;;;;1.19;100.00;98194.95;105920;1290;58815;-76
2022/11/24 05:28:03;;;;;;;77.90;39.00;;;;;;;1.17;100.00;98196.47;105903;1291;59066;-77
2022/11/24 05:30:30;;;;;;;81.40;39.90;;;;;;;1.18;100.00;98195.88;105934;1284;65822;-76
2022/11/24 05:32:57;;;;;;;86.80;38.00;;;;;;;1.18;100.00;98194.48;105660;1294;59865;-77
2022/11/24 05:35:23;;;;;;;80.90;38.80;;;;;;;1.17;100.00;98194.55;105941;1284;58935;-76
2022/11/24 05:37:49;;;;;;;87.40;38.80;;;;;;;1.16;100.00;98194.75;105912;1291;58952;-77
2022/11/24 05:40:16;;;;;;;89.40;41.40;;;;;;;1.17;100.00;98194.53;105911;1291;58886;-77
2022/11/24 05:42:42;;;;;;;81.80;38.00;;;;;;;1.18;100.00;98198.67;105920;1284;58923;-76
2022/11/24 05:45:14;;;;;;;80.00;37.30;;;;;;;1.18;100.00;98202.01;105942;1290;58894;-77
2022/11/24 05:47:41;;;;;;;82.10;36.50;;;;;;;1.17;100.00;98204.65;105936;1290;64956;-76
2022/11/24 05:50:11;;;;;;;73.90;36.20;;;;;;;1.17;100.00;98207.81;105773;1292;59001;-77
2022/11/24 05:52:37;;;;;;;76.20;37.80;;;;;;;1.15;100.00;98211.05;105943;1289;58789;-77
2022/11/24 05:55:06;;;;;;;78.70;39.70;;;;;;;1.13;100.00;98212.34;105912;1290;67013;-77
2022/11/24 05:57:32;;;;;;;74.40;36.50;;;;;;;1.13;100.00;98215.34;105628;1290;59939;-76
2022/11/24 05:59:58;;;;;;;78.80;36.30;;;;;;;1.13;100.00;98218.84;105907;1283;58933;-76
2022/11/24 06:02:24;;;;;;;73.50;35.20;;;;;;;1.12;100.00;98222.73;105853;1283;59341;-78
2022/11/24 06:04:50;;;;;;;76.90;39.50;;;;;;;1.11;100.00;98224.33;105946;1283;58866;-78
2022/11/24 06:07:16;;;;;;;77.10;38.80;;;;;;;1.12;100.00;98224.15;105716;1293;59529;-77
2022/11/24 06:09:43;;;;;;;72.10;36.60;;;;;;;1.12;100.00;98229.20;105922;1291;58920;-77
2022/11/24 06:12:10;;;;;;;81.50;39.20;;;;;;;1.11;100.00;98231.70;105929;1291;59120;-77
2022/11/24 06:14:36;;;;;;;82.10;39.30;;;;;;;1.10;100.00;98231.19;105923;1290;59006;-77
2022/11/24 06:17:03;;;;;;;77.60;36.30;;;;;;;1.12;100.00;98232.02;105941;1290;58873;-77
2022/11/24 06:19:30;;;;;;;77.70;37.10;;;;;;;1.13;100.00;98233.17;105894;1291;59350;-77
2022/11/24 06:21:56;;;;;;;69.20;34.10;;;;;;;1.14;100.00;98238.03;105941;1285;58876;-78
2022/11/24 06:24:23;;;;;;;74.70;40.00;;;;;;;1.15;100.00;98239.77;105915;1282;58928;-78
2022/11/24 06:26:49;;;;;;;79.20;40.70;;;;;;;1.16;100.00;98242.14;105929;1283;59198;-78
2022/11/24 06:29:14;;;;;;;75.20;37.40;;;;;;;1.17;100.00;98242.29;105935;1290;59229;-76
2022/11/24 06:31:41;;;;;;;82.70;41.30;;;;;;;1.19;100.00;98248.01;105917;1282;58963;-76
2022/11/24 06:34:10;;;;;;;74.20;36.20;;;;;;;1.20;100.00;98249.54;105948;1283;58958;-76
2022/11/24 06:36:37;;;;;;;78.60;37.40;;;;;;;1.20;100.00;98251.98;105939;1290;63918;-76
2022/11/24 06:39:06;;;;;;;81.60;40.10;;;;;;;1.21;100.00;98252.44;105945;1283;58879;-76
2022/11/24 06:41:33;;;;;;;75.90;37.20;;;;;;;1.22;100.00;98254.48;105929;1290;59172;-76
2022/11/24 06:44:02;;;;;;;79.90;39.00;;;;;;;1.22;100.00;98256.60;105764;1295;66906;-77
2022/11/24 06:46:30;;;;;;;80.90;40.60;;;;;;;1.23;100.00;98252.19;105726;1293;59953;-76
2022/11/24 06:48:58;;;;;;;95.90;46.90;;;;;;;1.24;100.00;98254.25;105877;1291;59154;-76
2022/11/24 06:51:25;;;;;;;78.40;40.10;;;;;;;1.25;100.00;98258.23;105655;1293;58981;-77
2022/11/24 06:53:51;;;;;;;75.30;39.20;;;;;;;1.25;100.00;98262.43;105974;1283;58940;-76
2022/11/24 06:56:19;;;;;;;84.40;40.50;;;;;;;1.24;100.00;98263.86;105929;1284;59101;-76
2022/11/24 06:58:49;;;;;;;76.90;38.00;;;;;;;1.24;100.00;98267.18;105710;1287;61138;-77
2022/11/24 07:01:22;;;;;;;72.80;37.00;;;;;;;1.25;100.00;98269.25;105948;1289;63996;-76
2022/11/24 07:03:49;;;;;;;80.30;39.50;;;;;;;1.26;100.00;98272.88;105923;1297;58892;-76
2022/11/24 07:06:16;;;;;;;77.80;38.50;;;;;;;1.27;100.00;98271.07;105942;1281;58754;-77
2022/11/24 07:08:43;;;;;;;76.70;35.70;;;;;;;1.29;100.00;98270.33;105944;1291;66331;-76
2022/11/24 07:11:14;;;;;;;79.00;38.70;;;;;;;1.29;100.00;98275.04;105938;1284;58958;-77
2022/11/24 07:13:44;;;;;;;80.30;41.10;;;;;;;1.30;100.00;98279.38;105891;1290;72500;-77
2022/11/24 07:16:21;;;;;;;74.90;38.90;;;;;;;1.31;100.00;98278.79;105640;1286;59781;-75
2022/11/24 07:18:50;;;;;;;84.90;40.90;;;;;;;1.31;100.00;98281.09;105932;1291;58843;-76
2022/11/24 07:21:19;;;;;;;80.00;40.30;;;;;;;1.29;100.00;98279.40;105695;1294;64785;-76
2022/11/24 07:23:53;;;;;;;86.60;42.80;;;;;;;1.30;100.00;98284.09;105926;1281;60124;-75
2022/11/24 07:26:20;;;;;;;83.30;42.20;;;;;;;1.30;100.00;98288.98;105915;1285;65245;-76
2022/11/24 07:28:48;;;;;;;84.00;42.00;;;;;;;1.32;100.00;98291.54;105928;1291;59391;-75
2022/11/24 07:31:17;;;;;;;81.50;40.60;;;;;;;1.35;100.00;98291.45;105922;1290;59013;-76
2022/11/24 07:33:48;;;;;;;86.40;44.70;;;;;;;1.34;100.00;98297.25;105931;1291;74844;-76
2022/11/24 07:36:19;;;;;;;86.00;42.90;;;;;;;1.35;100.00;98296.86;105973;1283;59752;-76
2022/11/24 07:38:45;;;;;;;88.00;43.40;;;;;;;1.35;100.00;98300.01;105915;1291;65128;-76
2022/11/24 07:41:14;;;;;;;87.10;43.80;;;;;;;1.36;100.00;98301.20;105921;1296;58904;-76
2022/11/24 07:43:40;;;;;;;80.70;40.80;;;;;;;1.37;100.00;98298.17;105790;1290;59044;-76
2022/11/24 07:46:10;;;;;;;82.40;44.30;;;;;;;1.39;100.00;98297.92;105591;1294;58923;-75
2022/11/24 07:48:36;;;;;;;83.00;42.20;;;;;;;1.40;100.00;98297.86;105920;1290;60022;-75
2022/11/24 07:51:04;;;;;;;85.00;45.10;;;;;;;1.42;100.00;98302.67;105911;1291;59344;-75
2022/11/24 07:53:31;;;;;;;77.30;40.80;;;;;;;1.45;100.00;98305.38;105714;1294;58901;-75
2022/11/24 07:56:00;;;;;;;77.20;41.80;;;;;;;1.45;100.00;98308.34;105924;1290;58929;-76
2022/11/24 07:58:29;;;;;;;80.40;42.30;;;;;;;1.45;100.00;98310.42;105928;1289;66865;-75
2022/11/24 08:00:55;;;;;;;76.40;42.30;;;;;;;1.46;100.00;98311.08;105686;1293;60737;-76
2022/11/24 08:03:22;;;;;;;75.00;43.00;;;;;;;1.46;100.00;98314.92;105887;1290;58882;-76
2022/11/24 08:05:57;;;;;;;80.50;44.80;;;;;;;1.47;100.00;98316.63;105919;1291;59168;-76
2022/11/24 08:08:23;;;;;;;82.50;43.30;;;;;;;1.48;100.00;98322.21;105849;1283;59401;-76
2022/11/24 08:10:50;;;;;;;83.00;43.40;;;;;;;1.47;100.00;98323.11;105927;1290;66216;-77
2022/11/24 08:13:16;;;;;;;91.90;49.50;;;;;;;1.48;100.00;98322.92;105776;1291;60856;-76
2022/11/24 08:15:42;;;;;;;90.10;46.20;;;;;;;1.49;100.00;98323.38;105916;1291;59000;-76
2022/11/24 08:18:09;;;;;;;90.10;48.60;;;;;;;1.49;100.00;98328.11;105913;1283;58931;-75
2022/11/24 08:20:35;;;;;;;104.70;52.40;;;;;;;1.51;100.00;98331.69;105949;1291;58945;-75
2022/11/24 08:23:01;;;;;;;99.60;49.60;;;;;;;1.54;100.00;98330.00;105926;1283;58894;-76
2022/11/24 08:25:31;;;;;;;104.40;51.30;;;;;;;1.57;100.00;98329.05;105931;1288;59028;-76
2022/11/24 08:27:58;;;;;;;105.90;51.30;;;;;;;1.60;100.00;98333.98;105931;1290;65122;-75
2022/11/24 08:30:25;;;;;;;106.00;53.10;;;;;;;1.60;100.00;98331.50;105903;1291;58939;-76
2022/11/24 08:32:52;;;;;;;113.70;52.10;;;;;;;1.58;100.00;98333.55;105915;1291;58822;-76
2022/11/24 08:35:18;;;;;;;106.20;51.30;;;;;;;1.53;100.00;98340.23;105708;1290;65948;-75
2022/11/24 08:37:44;;;;;;;115.20;54.10;;;;;;;1.52;100.00;98340.43;105938;1284;59227;-76
2022/11/24 08:40:11;;;;;;;115.20;54.50;;;;;;;1.53;100.00;98350.55;105913;1282;59062;-75
2022/11/24 08:42:37;;;;;;;118.60;56.30;;;;;;;1.55;100.00;98353.11;105756;1293;58902;-76
2022/11/24 08:45:04;;;;;;;122.80;55.40;;;;;;;1.57;100.00;98353.04;105948;1290;59265;-76
2022/11/24 08:47:31;;;;;;;115.90;55.60;;;;;;;1.59;100.00;98355.19;105919;1290;58835;-76
2022/11/24 08:49:57;;;;;;;143.10;60.80;;;;;;;1.65;100.00;98350.94;105934;1290;68582;-77
2022/11/24 08:52:23;;;;;;;131.90;59.90;;;;;;;1.68;100.00;98353.59;105901;1284;59115;-76
2022/11/24 08:54:49;;;;;;;141.00;56.80;;;;;;;1.70;100.00;98362.45;105925;1291;59123;-76
2022/11/24 08:57:15;;;;;;;125.20;54.20;;;;;;;1.72;100.00;98360.27;105920;1290;58919;-76
2022/11/24 08:59:41;;;;;;;145.80;56.00;;;;;;;1.76;100.00;98362.23;105931;1285;58949;-76
2022/11/24 09:02:12;;;;;;;122.30;52.80;;;;;;;1.80;100.00;98362.77;105944;1283;58850;-76
2022/11/24 09:04:38;;;;;;;131.30;55.20;;;;;;;1.83;100.00;98362.08;105932;1291;65332;-75
2022/11/24 09:07:06;;;;;;;139.00;55.60;;;;;;;1.87;100.00;98366.65;105947;1290;58946;-75
2022/11/24 09:09:32;;;;;;;127.90;53.50;;;;;;;1.92;100.00;98365.38;105960;1290;58981;-76
2022/11/24 09:11:58;;;;;;;126.90;53.70;;;;;;;1.98;100.00;98367.08;105942;1283;58961;-76
2022/11/24 09:14:24;;;;;;;123.90;53.90;;;;;;;2.03;100.00;98365.80;105929;1287;59076;-75
2022/11/24 09:16:50;;;;;;;122.90;52.80;;;;;;;2.08;100.00;98366.14;105933;1290;59000;-75
2022/11/24 09:19:16;;;;;;;123.80;50.90;;;;;;;2.11;100.00;98367.07;105926;1290;58969;-76
2022/11/24 09:21:43;;;;;;;129.50;54.70;;;;;;;2.15;100.00;98368.42;105929;1298;59288;-76
2022/11/24 09:24:09;;;;;;;109.20;49.30;;;;;;;2.20;100.00;98371.56;105926;1290;59031;-76
2022/11/24 09:26:37;;;;;;;120.60;53.20;;;;;;;2.22;100.00;98372.52;105936;1290;59179;-76
2022/11/24 09:29:06;;;;;;;125.40;54.10;;;;;;;2.21;100.00;98371.71;105910;1287;64421;-76
2022/11/24 09:31:34;;;;;;;132.20;56.80;;;;;;;2.17;100.00;98373.94;105904;1290;58944;-76
2022/11/24 09:34:03;;;;;;;120.60;53.10;;;;;;;2.17;100.00;98375.02;105931;1283;59181;-76
2022/11/24 09:36:30;;;;;;;115.80;52.20;;;;;;;2.19;100.00;98373.36;105936;1290;67071;-76
2022/11/24 09:38:57;;;;;;;128.80;54.10;;;;;;;2.19;100.00;98372.30;105935;1290;60111;-76
2022/11/24 09:41:32;;;;;;;127.00;55.80;;;;;;;2.17;100.00;98371.68;105932;1287;58888;-76
2022/11/24 09:44:27;;;;;;;131.20;58.50;;;;;;;2.15;100.00;98372.30;105933;1283;58839;-76
2022/11/24 09:47:11;;;;;;;142.30;61.50;;;;;;;2.14;100.00;98369.89;105941;1290;58771;-76
2022/11/24 09:49:50;;;;;;;144.90;63.60;;;;;;;2.13;100.00;98368.86;105941;1297;64646;-76
2022/11/24 09:52:23;;;;;;;142.60;64.10;;;;;;;2.16;100.00;98369.96;105925;1283;68690;-76
2022/11/24 09:54:59;;;;;;;151.60;66.40;;;;;;;2.19;100.00;98370.90;105945;1289;64947;-76
2022/11/24 09:57:28;;;;;;;140.20;62.80;;;;;;;2.22;100.00;98368.54;105948;1290;58952;-77
2022/11/24 10:00:03;;;;;;;144.50;62.90;;;;;;;2.20;100.00;98364.18;105948;1290;58765;-77
2022/11/24 10:02:30;;;;;;;141.70;62.30;;;;;;;2.20;100.00;98368.38;105591;1289;67327;-77
2022/11/24 10:04:57;;;;;;;137.40;63.20;;;;;;;2.21;100.00;98370.48;105928;1283;60088;-77
2022/11/24 10:07:32;;;;;;;143.20;62.30;;;;;;;2.22;100.00;98371.81;105679;1294;65050;-75
2022/11/24 10:10:16;;;;;;;143.20;63.50;;;;;;;2.24;100.00;98370.52;105895;1291;58879;-75
2022/11/24 10:13:10;;;;;;;129.40;59.20;;;;;;;2.25;100.00;98370.67;105938;1290;58943;-76
2022/11/24 10:16:03;;;;;;;122.20;59.70;;;;;;;2.24;100.00;98372.78;105927;1290;67119;-76
2022/11/24 10:18:49;;;;;;;122.20;57.40;;;;;;;2.22;100.00;98371.31;105940;1290;58921;-76
2022/11/24 10:21:24;;;;;;;115.90;52.90;;;;;;;2.23;100.00;98369.36;105945;1283;64877;-75
2022/11/24 10:23:53;;;;;;;119.00;58.20;;;;;;;2.23;100.00;98370.23;105934;1290;59094;-75
2022/11/24 10:26:25;;;;;;;117.80;55.20;;;;;;;2.23;100.00;98367.58;105947;1291;58956;-76
2022/11/24 10:28:55;;;;;;;120.00;55.50;;;;;;;2.22;100.00;98369.73;105941;1289;75811;-76
2022/11/24 10:31:33;;;;;;;111.80;53.90;;;;;;;2.22;100.00;98369.75;105941;1283;60097;-76
2022/11/24 10:34:09;;;;;;;104.40;51.50;;;;;;;2.20;100.00;98370.89;105946;1290;64104;-77
2022/11/24 10:37:04;;;;;;;119.30;53.70;;;;;;;2.18;100.00;98369.02;105921;1292;58798;-76
2022/11/24 10:39:40;;;;;;;111.30;51.60;;;;;;;2.16;100.00;98370.67;105923;1291;58921;-76
2022/11/24 10:42:27;;;;;;;108.10;53.50;;;;;;;2.15;100.00;98370.02;105944;1290;65807;-76
2022/11/24 10:45:03;;;;;;;103.30;47.20;;;;;;;2.15;100.00;98371.58;105906;1283;69904;-76
2022/11/24 10:47:29;;;;;;;113.20;55.00;;;;;;;2.12;100.00;98374.02;105698;1283;64009;-76
2022/11/24 10:50:25;;;;;;;109.50;53.60;;;;;;;2.11;100.00;98378.45;105939;1291;58921;-75
2022/11/24 10:53:23;;;;;;;108.30;51.40;;;;;;;2.10;100.00;98381.29;105954;1283;58903;-76
2022/11/24 10:55:55;;;;;;;110.60;54.20;;;;;;;2.10;100.00;98381.81;105318;1299;67050;-76
2022/11/24 10:58:26;;;;;;;108.80;53.40;;;;;;;2.15;100.00;98380.55;105298;1298;60557;-76
2022/11/24 11:00:53;;;;;;;102.80;53.70;;;;;;;2.18;100.00;98378.65;105297;1290;65263;-76
2022/11/24 11:03:25;;;;;;;107.80;52.70;;;;;;;2.18;100.00;98383.56;105320;1299;58921;-76
2022/11/24 11:06:10;;;;;;;98.90;49.50;;;;;;;2.18;100.00;98383.91;105333;1299;58874;-76
2022/11/24 11:08:36;;;;;;;97.50;49.20;;;;;;;2.21;100.00;98382.02;105311;1297;67022;-75
2022/11/24 11:11:26;;;;;;;95.50;48.80;;;;;;;2.26;100.00;98379.73;105325;1298;59373;-76
2022/11/24 11:14:04;;;;;;;93.50;48.50;;;;;;;2.31;100.00;98375.64;105275;1299;64066;-75
2022/11/24 11:16:54;;;;;;;98.40;52.20;;;;;;;2.38;100.00;98376.38;105287;1299;59093;-75
2022/11/24 11:19:37;;;;;;;92.70;51.80;;;;;;;2.43;100.00;98377.91;104805;1294;59120;-76